createdAt,value
2022-08-07T00:00:18.729Z,27.60
2022-08-07T00:02:47.093Z,27.60
2022-08-07T00:05:14.914Z,27.60
2022-08-07T00:07:42.279Z,27.60
2022-08-07T00:10:29.803Z,27.50
2022-08-07T00:13:02.253Z,27.60
2022-08-07T00:15:46.844Z,27.60
2022-08-07T00:18:24.556Z,27.60
2022-08-07T00:21:01.940Z,27.50
2022-08-07T00:23:32.645Z,27.50
2022-08-07T00:26:13.300Z,27.40
2022-08-07T00:28:55.387Z,27.40
2022-08-07T00:31:37.906Z,27.40
2022-08-07T00:34:09.610Z,27.50
2022-08-07T00:36:42.790Z,27.50
2022-08-07T00:39:17.050Z,27.50
2022-08-07T00:42:01.389Z,27.50
2022-08-07T00:44:29.995Z,27.50
2022-08-07T00:46:57.897Z,27.50
2022-08-07T00:50:20.270Z,27.30
2022-08-07T00:52:14.821Z,27.20
2022-08-07T00:54:53.696Z,27.20
2022-08-07T00:57:26.092Z,27.10
2022-08-07T00:59:54.376Z,27.00
2022-08-07T01:02:28.627Z,26.90
2022-08-07T01:04:59.069Z,26.90
2022-08-07T01:07:29.625Z,26.90
2022-08-07T01:10:06.803Z,26.90
2022-08-07T01:12:53.267Z,26.90
2022-08-07T01:16:01.121Z,26.80
2022-08-07T01:18:17.043Z,26.80
2022-08-07T01:20:59.346Z,26.70
2022-08-07T01:23:38.084Z,26.70
2022-08-07T01:26:12.118Z,26.60
2022-08-07T01:28:45.887Z,26.60
2022-08-07T01:31:17.848Z,26.60
2022-08-07T01:33:55.429Z,26.60
2022-08-07T01:36:33.549Z,26.60
2022-08-07T01:39:10.037Z,26.50
2022-08-07T01:42:01.440Z,26.50
2022-08-07T01:44:30.929Z,26.50
2022-08-07T01:47:01.099Z,26.40
2022-08-07T01:49:31.976Z,26.40
2022-08-07T01:52:04.942Z,26.40
2022-08-07T01:54:37.735Z,26.30
2022-08-07T01:57:24.905Z,26.30
2022-08-07T02:00:04.578Z,26.20
2022-08-07T02:03:18.628Z,26.20
2022-08-07T02:05:47.803Z,26.20
2022-08-07T02:08:26.561Z,26.20
2022-08-07T02:10:58.118Z,26.20
2022-08-07T02:13:58.030Z,26.20
2022-08-07T02:16:32.922Z,26.20
2022-08-07T02:19:05.731Z,26.20
2022-08-07T02:21:56.490Z,26.20
2022-08-07T02:24:29.434Z,26.10
2022-08-07T02:27:00.238Z,26.20
2022-08-07T02:29:30.610Z,26.20
2022-08-07T02:32:01.609Z,26.20
2022-08-07T02:34:30.326Z,26.30
2022-08-07T02:37:01.986Z,26.30
2022-08-07T02:40:01.713Z,26.20
2022-08-07T02:42:31.218Z,26.20
2022-08-07T02:45:07.266Z,26.20
2022-08-07T02:47:55.220Z,26.20
2022-08-07T02:50:26.962Z,26.20
2022-08-07T02:53:07.049Z,26.20
2022-08-07T02:56:02.253Z,26.20
2022-08-07T02:58:33.529Z,26.20
2022-08-07T03:01:03.479Z,26.20
2022-08-07T03:03:49.093Z,26.10
2022-08-07T03:06:26.132Z,26.10
2022-08-07T03:09:05.980Z,26.10
2022-08-07T03:11:38.560Z,26.10
2022-08-07T03:14:09.083Z,26.10
2022-08-07T03:16:38.437Z,26.10
2022-08-07T03:19:08.409Z,26.10
2022-08-07T03:21:37.296Z,26.00
2022-08-07T03:24:19.630Z,26.00
2022-08-07T03:26:58.556Z,26.00
2022-08-07T03:29:37.727Z,25.90
2022-08-07T03:32:13.100Z,25.90
2022-08-07T03:35:16.608Z,25.70
2022-08-07T03:37:46.306Z,25.70
2022-08-07T03:40:30.882Z,25.80
2022-08-07T03:43:01.884Z,25.90
2022-08-07T03:45:33.403Z,25.90
2022-08-07T03:48:11.679Z,26.00
2022-08-07T03:50:43.173Z,26.00
2022-08-07T03:54:01.883Z,26.00
2022-08-07T03:56:18.690Z,26.10
2022-08-07T03:59:09.713Z,26.10
2022-08-07T04:01:45.735Z,26.10
2022-08-07T04:04:19.298Z,26.10
2022-08-07T04:06:52.578Z,26.10
2022-08-07T04:09:24.184Z,26.10
2022-08-07T04:12:25.887Z,26.10
2022-08-07T04:14:47.835Z,26.10
2022-08-07T04:17:21.448Z,26.10
2022-08-07T04:19:55.029Z,26.20
2022-08-07T04:22:29.133Z,26.20
2022-08-07T04:25:01.130Z,26.10
2022-08-07T04:27:36.302Z,26.10
2022-08-07T04:30:21.462Z,26.10
2022-08-07T04:33:13.835Z,26.20
2022-08-07T04:35:50.147Z,26.20
2022-08-07T04:38:21.109Z,26.20
2022-08-07T04:40:52.930Z,26.20
2022-08-07T04:44:12.193Z,26.20
2022-08-07T04:47:03.834Z,26.20
2022-08-07T04:49:58.011Z,26.20
2022-08-07T04:52:56.557Z,26.20
2022-08-07T04:58:24.304Z,26.30
2022-08-07T04:59:18.476Z,26.30
2022-08-07T05:01:52.966Z,26.40
2022-08-07T05:04:43.987Z,26.40
2022-08-07T05:07:21.149Z,26.30
2022-08-07T05:10:04.531Z,26.20
2022-08-07T05:14:44.284Z,26.20
2022-08-07T05:15:51.467Z,26.20
2022-08-07T05:18:27.482Z,26.10
2022-08-07T05:21:04.876Z,26.00
2022-08-07T05:24:04.226Z,25.90
2022-08-07T05:26:34.483Z,25.60
2022-08-07T05:29:07.580Z,25.40
2022-08-07T05:31:40.490Z,25.40
2022-08-07T05:34:18.745Z,25.20
2022-08-07T05:36:52.870Z,25.00
2022-08-07T05:40:13.928Z,24.90
2022-08-07T05:42:34.194Z,24.70
2022-08-07T05:45:26.185Z,24.60
2022-08-07T05:48:01.843Z,24.50
2022-08-07T05:50:39.408Z,24.40
2022-08-07T05:54:13.263Z,24.30
2022-08-07T05:56:03.071Z,24.30
2022-08-07T05:58:37.491Z,24.30
2022-08-07T06:01:11.085Z,24.30
2022-08-07T06:03:57.113Z,24.30
2022-08-07T06:06:29.407Z,24.20
2022-08-07T06:09:01.190Z,24.20
2022-08-07T06:11:34.167Z,24.10
2022-08-07T06:14:12.401Z,24.20
2022-08-07T06:16:55.999Z,24.10
2022-08-07T06:19:51.752Z,24.10
2022-08-07T06:22:24.031Z,24.10
2022-08-07T06:25:10.283Z,24.20
2022-08-07T06:28:00.186Z,24.20
2022-08-07T06:30:35.273Z,24.10
2022-08-07T06:33:09.830Z,24.10
2022-08-07T06:35:48.012Z,24.10
2022-08-07T06:38:32.322Z,24.20
2022-08-07T06:41:01.574Z,24.20
2022-08-07T06:43:40.138Z,24.20
2022-08-07T06:46:20.535Z,24.20
2022-08-07T06:49:04.618Z,24.30
2022-08-07T06:51:49.523Z,24.40
2022-08-07T06:55:33.950Z,24.30
2022-08-07T06:57:09.489Z,24.40
2022-08-07T07:00:13.578Z,24.30
2022-08-07T07:02:54.591Z,24.30
2022-08-07T07:06:03.075Z,24.30
2022-08-07T07:08:10.140Z,24.30
2022-08-07T07:10:47.531Z,24.30
2022-08-07T07:13:55.480Z,24.30
2022-08-07T07:16:20.378Z,24.40
2022-08-07T07:18:53.882Z,24.30
2022-08-07T07:21:26.917Z,24.40
2022-08-07T07:24:11.191Z,24.40
2022-08-07T07:26:51.979Z,24.40
2022-08-07T07:29:57.100Z,24.40
2022-08-07T07:32:15.564Z,24.40
2022-08-07T07:34:48.679Z,24.50
2022-08-07T07:37:45.563Z,24.50
2022-08-07T07:40:10.345Z,24.50
2022-08-07T07:42:51.117Z,24.60
2022-08-07T07:46:50.020Z,24.70
2022-08-07T07:48:24.176Z,24.70
2022-08-07T07:51:07.498Z,24.80
2022-08-07T07:53:51.905Z,24.70
2022-08-07T07:56:30.306Z,24.80
2022-08-07T07:59:04.145Z,24.70
2022-08-07T08:02:02.743Z,24.70
2022-08-07T08:04:28.115Z,24.70
2022-08-07T08:07:00.628Z,24.70
2022-08-07T08:09:32.007Z,24.70
2022-08-07T08:12:50.113Z,24.80
2022-08-07T08:15:08.312Z,24.80
2022-08-07T08:17:58.169Z,24.90
2022-08-07T08:20:31.594Z,24.90
2022-08-07T08:23:18.931Z,24.90
2022-08-07T08:26:09.601Z,24.90
2022-08-07T08:28:44.806Z,25.00
2022-08-07T08:31:22.942Z,25.00
2022-08-07T08:34:10.687Z,25.00
2022-08-07T08:36:49.349Z,25.10
2022-08-07T08:39:38.826Z,25.10
2022-08-07T08:42:14.009Z,25.20
2022-08-07T08:44:57.192Z,25.30
2022-08-07T08:48:05.865Z,25.30
2022-08-07T08:50:40.558Z,25.30
2022-08-07T08:53:22.606Z,25.40
2022-08-07T08:55:58.969Z,25.40
2022-08-07T08:58:50.534Z,25.40
2022-08-07T09:01:53.924Z,25.40
2022-08-07T09:04:45.950Z,25.40
2022-08-07T09:08:03.690Z,25.40
2022-08-07T09:11:05.517Z,25.40
2022-08-07T09:13:37.706Z,25.40
2022-08-07T09:16:29.988Z,25.50
2022-08-07T09:19:53.610Z,25.50
2022-08-07T09:24:29.343Z,25.60
2022-08-07T09:25:27.415Z,25.70
2022-08-07T09:29:24.372Z,25.70
2022-08-07T09:31:19.939Z,25.70
2022-08-07T09:34:07.823Z,25.70
2022-08-07T09:36:50.854Z,25.70
2022-08-07T09:39:54.943Z,25.70
2022-08-07T09:42:29.305Z,25.70
2022-08-07T09:47:49.577Z,25.70
2022-08-07T09:48:19.221Z,25.70
2022-08-07T09:51:03.211Z,25.80
2022-08-07T09:53:48.868Z,25.90
2022-08-07T09:57:04.640Z,26.00
2022-08-07T09:59:46.097Z,26.00
2022-08-07T10:02:41.172Z,26.10
2022-08-07T10:05:59.576Z,26.20
2022-08-07T10:08:25.267Z,26.30
2022-08-07T10:12:00.075Z,26.40
2022-08-07T10:14:30.304Z,26.40
2022-08-07T10:17:17.406Z,26.50
2022-08-07T10:20:12.946Z,26.60
2022-08-07T10:22:55.521Z,26.60
2022-08-07T10:25:44.624Z,26.60
2022-08-07T10:28:37.449Z,26.70
2022-08-07T10:31:31.468Z,26.90
2022-08-07T10:34:32.218Z,27.00
2022-08-07T10:38:00.516Z,27.10
2022-08-07T10:41:11.859Z,27.20
2022-08-07T10:44:07.957Z,27.30
2022-08-07T10:46:46.672Z,27.40
2022-08-07T10:49:45.272Z,27.50
2022-08-07T10:52:21.893Z,27.50
2022-08-07T10:55:26.739Z,27.60
2022-08-07T10:58:25.119Z,27.70
2022-08-07T11:01:22.284Z,27.80
2022-08-07T11:04:23.408Z,27.60
2022-08-07T11:07:58.416Z,27.50
2022-08-07T11:10:48.724Z,27.50
2022-08-07T11:14:44.046Z,27.60
2022-08-07T11:16:29.923Z,27.60
2022-08-07T11:19:21.733Z,27.60
2022-08-07T11:22:04.525Z,27.60
2022-08-07T11:24:51.885Z,27.70
2022-08-07T11:28:01.693Z,27.80
2022-08-07T11:30:56.077Z,28.20
2022-08-07T11:33:53.750Z,28.50
2022-08-07T11:36:52.009Z,28.80
2022-08-07T11:40:00.727Z,29.00
2022-08-07T11:42:40.776Z,29.30
2022-08-07T11:45:36.466Z,29.50
2022-08-07T11:48:29.768Z,29.80
2022-08-07T11:51:09.851Z,30.00
2022-08-07T11:53:43.002Z,30.10
2022-08-07T11:56:30.105Z,30.10
2022-08-07T11:59:22.222Z,30.20
2022-08-07T12:02:30.416Z,30.10
2022-08-07T12:05:28.600Z,30.00
2022-08-07T12:08:31.403Z,29.90
2022-08-07T12:11:20.220Z,29.70
2022-08-07T12:14:01.520Z,29.70
2022-08-07T12:16:34.824Z,29.50
2022-08-07T12:19:14.762Z,29.60
2022-08-07T12:22:39.008Z,29.70
2022-08-07T12:26:21.417Z,29.90
2022-08-07T12:28:53.129Z,30.00
2022-08-07T12:32:02.453Z,30.30
2022-08-07T12:34:31.703Z,30.50
2022-08-07T12:37:00.882Z,30.70
2022-08-07T12:39:42.749Z,30.80
2022-08-07T12:42:13.077Z,30.70
2022-08-07T12:44:45.156Z,30.90
2022-08-07T12:47:49.425Z,31.00
2022-08-07T12:50:34.258Z,31.10
2022-08-07T12:54:03.022Z,31.20
2022-08-07T12:56:21.776Z,31.30
2022-08-07T12:58:53.264Z,31.30
2022-08-07T13:01:27.950Z,31.30
2022-08-07T13:04:34.464Z,31.30
2022-08-07T13:08:13.798Z,31.20
2022-08-07T13:10:40.854Z,31.00
2022-08-07T13:13:48.854Z,31.00
2022-08-07T13:16:16.286Z,30.90
2022-08-07T13:18:59.633Z,30.80
2022-08-07T13:22:03.037Z,30.80
2022-08-07T13:24:53.893Z,30.80
2022-08-07T13:28:06.325Z,30.70
2022-08-07T13:30:41.372Z,30.70
2022-08-07T13:34:33.614Z,30.60
2022-08-07T13:36:22.507Z,30.50
2022-08-07T13:39:03.004Z,30.40
2022-08-07T13:41:41.306Z,30.30
2022-08-07T13:44:12.980Z,30.40
2022-08-07T13:46:49.424Z,30.30
2022-08-07T13:50:32.539Z,30.40
2022-08-07T13:52:25.946Z,30.30
2022-08-07T13:54:57.300Z,30.20
2022-08-07T13:57:37.667Z,30.10
2022-08-07T14:00:26.330Z,30.10
2022-08-07T14:02:57.716Z,30.20
2022-08-07T14:05:28.953Z,30.10
2022-08-07T14:08:08.694Z,30.10
2022-08-07T14:10:42.039Z,30.10
2022-08-07T14:13:21.611Z,30.10
2022-08-07T14:16:05.360Z,30.10
2022-08-07T14:18:57.156Z,30.20
2022-08-07T14:22:03.247Z,30.20
2022-08-07T14:24:41.437Z,30.30
2022-08-07T14:28:11.392Z,30.30
2022-08-07T14:30:11.243Z,30.20
2022-08-07T14:33:01.864Z,30.20
2022-08-07T14:35:45.541Z,30.10
2022-08-07T14:38:26.889Z,30.00
2022-08-07T14:41:34.028Z,30.00
2022-08-07T14:44:17.808Z,30.00
2022-08-07T14:55:17.634Z,30.00
2022-08-07T14:57:57.851Z,30.10
2022-08-07T15:00:34.948Z,30.10
2022-08-07T15:03:16.554Z,30.20
2022-08-07T15:05:55.326Z,30.20
2022-08-07T15:08:47.619Z,30.10
2022-08-07T15:11:54.371Z,30.10
2022-08-07T15:14:20.746Z,30.10
2022-08-07T15:22:53.647Z,30.00
2022-08-07T15:25:36.428Z,30.00
2022-08-07T15:28:35.022Z,30.10
2022-08-07T15:31:05.768Z,30.00
2022-08-07T15:33:38.373Z,30.00
2022-08-07T15:36:10.955Z,30.00
2022-08-07T15:38:58.675Z,30.00
2022-08-07T15:42:43.392Z,30.00
2022-08-07T15:44:23.577Z,29.90
2022-08-07T15:47:08.996Z,30.00
2022-08-07T15:50:05.739Z,29.90
2022-08-07T15:52:36.768Z,29.90
2022-08-07T15:55:11.586Z,29.90
2022-08-07T15:57:48.727Z,29.90
2022-08-07T16:00:32.174Z,29.90
2022-08-07T16:03:21.815Z,29.90
2022-08-07T16:06:02.872Z,29.80
2022-08-07T16:08:38.911Z,29.90
2022-08-07T16:11:27.204Z,29.80
2022-08-07T16:14:05.319Z,29.80
2022-08-07T16:16:57.331Z,29.80
2022-08-07T16:19:59.035Z,29.80
2022-08-07T16:22:54.849Z,29.80
2022-08-07T16:26:15.268Z,29.80
2022-08-07T16:30:07.634Z,29.70
2022-08-07T16:32:32.956Z,29.70
2022-08-07T16:35:51.739Z,29.60
2022-08-07T16:38:59.916Z,29.50
2022-08-07T16:41:23.116Z,29.50
2022-08-07T16:44:40.304Z,29.50
2022-08-07T16:47:18.697Z,29.50
2022-08-07T16:50:37.087Z,29.50
2022-08-07T16:54:02.016Z,29.60
2022-08-07T16:56:39.743Z,29.50
2022-08-07T16:59:22.217Z,29.60
2022-08-07T17:02:52.039Z,29.60
2022-08-07T17:06:18.901Z,29.50
2022-08-07T17:08:10.180Z,29.50
2022-08-07T17:10:54.886Z,29.50
2022-08-07T17:13:41.466Z,29.50
2022-08-07T17:16:40.037Z,29.40
2022-08-07T17:20:01.896Z,29.30
2022-08-07T17:22:37.841Z,29.40
2022-08-07T17:25:16.563Z,29.40
2022-08-07T17:28:06.753Z,29.40
2022-08-07T17:30:58.073Z,29.40
2022-08-07T17:33:39.003Z,29.40
2022-08-07T17:36:26.080Z,29.40
2022-08-07T17:39:15.711Z,29.50
2022-08-07T17:42:01.524Z,29.40
2022-08-07T17:44:49.900Z,29.40
2022-08-07T17:47:45.198Z,29.30
2022-08-07T17:50:30.278Z,29.30
2022-08-07T17:53:06.014Z,29.30
2022-08-07T17:56:14.936Z,29.20
2022-08-07T17:59:17.100Z,29.20
2022-08-07T18:02:00.778Z,29.10
2022-08-07T18:04:55.949Z,29.10
2022-08-07T18:07:36.281Z,29.10
2022-08-07T18:10:33.442Z,29.00
2022-08-07T18:13:00.798Z,29.00
2022-08-07T18:15:56.934Z,29.00
2022-08-07T18:18:46.657Z,28.90
2022-08-07T18:21:53.592Z,28.90
2022-08-07T18:24:35.865Z,28.80
2022-08-07T18:27:17.199Z,28.70
2022-08-07T18:30:06.736Z,28.70
2022-08-07T18:33:10.939Z,28.70
2022-08-07T18:35:57.536Z,28.60
2022-08-07T18:39:56.059Z,28.60
2022-08-07T18:41:55.200Z,28.50
2022-08-07T18:45:44.543Z,28.50
2022-08-07T18:48:01.388Z,28.50
2022-08-07T18:50:45.940Z,28.50
2022-08-07T18:53:36.502Z,28.50
2022-08-07T18:56:30.675Z,28.50
2022-08-07T18:59:47.413Z,28.40
2022-08-07T19:02:56.825Z,28.40
2022-08-07T19:06:03.528Z,28.30
2022-08-07T19:08:55.632Z,28.20
2022-08-07T19:12:04.134Z,28.20
2022-08-07T19:16:03.430Z,28.20
2022-08-07T19:18:07.197Z,28.20
2022-08-07T19:21:14.533Z,28.10
2022-08-07T19:24:02.393Z,28.10
2022-08-07T19:26:55.581Z,28.10
2022-08-07T19:30:56.578Z,28.10
2022-08-07T19:32:26.040Z,28.00
2022-08-07T19:35:00.161Z,28.10
2022-08-07T19:37:55.486Z,28.00
2022-08-07T19:40:18.996Z,28.10
2022-08-07T19:42:59.486Z,28.00
2022-08-07T19:46:04.846Z,28.00
2022-08-07T19:48:24.601Z,28.00
2022-08-07T19:50:54.588Z,27.90
2022-08-07T19:54:32.022Z,27.90
2022-08-07T19:57:51.765Z,27.80
2022-08-07T19:59:11.729Z,27.80
2022-08-07T20:01:57.291Z,27.70
2022-08-07T20:04:31.608Z,27.70
2022-08-07T20:07:09.100Z,27.60
2022-08-07T20:10:35.891Z,27.60
2022-08-07T20:12:48.752Z,27.60
2022-08-07T20:15:22.424Z,27.60
2022-08-07T20:18:01.678Z,27.60
2022-08-07T20:20:33.705Z,27.60
2022-08-07T20:23:23.339Z,27.60
2022-08-07T20:25:55.829Z,27.50
2022-08-07T20:28:29.949Z,27.50
2022-08-07T20:30:59.478Z,27.40
2022-08-07T20:33:38.027Z,27.40
2022-08-07T20:36:09.813Z,27.40
2022-08-07T20:38:53.727Z,27.30
2022-08-07T20:41:28.911Z,27.30
2022-08-07T20:44:06.115Z,27.30
2022-08-07T20:46:44.303Z,27.20
2022-08-07T20:49:59.988Z,27.20
2022-08-07T20:52:24.433Z,27.20
2022-08-07T20:54:57.643Z,27.20
2022-08-07T20:57:28.909Z,27.10
2022-08-07T21:00:07.167Z,27.10
2022-08-07T21:03:00.922Z,27.10
2022-08-07T21:05:50.954Z,27.00
2022-08-07T21:08:39.129Z,27.00
2022-08-07T21:11:14.506Z,26.90
2022-08-07T21:14:16.547Z,26.90
2022-08-07T21:18:01.110Z,26.80
2022-08-07T21:19:51.341Z,26.70
2022-08-07T21:22:30.469Z,26.80
2022-08-07T21:25:22.362Z,26.80
2022-08-07T21:28:04.738Z,26.70
2022-08-07T21:30:49.647Z,26.70
2022-08-07T21:33:22.768Z,26.70
2022-08-07T21:36:05.955Z,26.70
2022-08-07T21:39:47.325Z,26.70
2022-08-07T21:42:46.015Z,26.60
2022-08-07T21:46:07.513Z,26.60
2022-08-07T21:48:42.439Z,26.60
2022-08-07T21:51:20.346Z,26.50
2022-08-07T21:54:00.725Z,26.50
2022-08-07T21:56:59.954Z,26.50
2022-08-07T22:00:02.781Z,26.50
2022-08-07T22:02:54.773Z,26.50
2022-08-07T22:05:45.687Z,26.50
2022-08-07T22:08:19.782Z,26.50
2022-08-07T22:10:57.994Z,26.50
2022-08-07T22:13:50.492Z,26.50
2022-08-07T22:16:38.995Z,26.50
2022-08-07T22:19:18.091Z,26.50
2022-08-07T22:22:21.472Z,26.50
2022-08-07T22:25:11.161Z,26.50
2022-08-07T22:28:19.855Z,26.50
2022-08-07T22:30:54.736Z,26.50
2022-08-07T22:33:52.878Z,26.50
2022-08-07T22:36:42.693Z,26.50
2022-08-07T22:39:56.586Z,26.40
2022-08-07T22:42:29.500Z,26.40
2022-08-07T22:45:03.642Z,26.40
2022-08-07T22:48:01.897Z,26.40
2022-08-07T22:50:48.326Z,26.40
2022-08-07T22:54:06.717Z,26.30
2022-08-07T22:56:57.974Z,26.20
2022-08-07T22:59:58.158Z,26.30
2022-08-07T23:02:40.529Z,26.20
2022-08-07T23:06:10.027Z,26.20
2022-08-07T23:08:51.605Z,26.10
2022-08-07T23:12:09.730Z,26.10
2022-08-07T23:14:48.411Z,26.10
2022-08-07T23:17:24.874Z,26.20
2022-08-07T23:20:20.266Z,26.10
2022-08-07T23:24:05.824Z,26.10
2022-08-07T23:26:18.538Z,26.10
2022-08-07T23:30:36.305Z,26.10
2022-08-07T23:34:19.830Z,26.00
2022-08-07T23:35:37.675Z,26.00
2022-08-07T23:38:36.684Z,26.00
2022-08-07T23:41:32.999Z,26.00
2022-08-07T23:44:33.544Z,26.00
2022-08-07T23:47:07.341Z,26.00
2022-08-07T23:50:07.618Z,25.90
2022-08-07T23:53:05.471Z,26.00
2022-08-07T23:55:53.698Z,25.90
2022-08-07T23:58:30.842Z,25.90
